Time;durP1;ratioP1;P1;durP2;ratioP2;P2;SDS_P1;SDS_P2;PMS_P1;PMS_P2;Temp;Humidity;BMP_temperature;BMP_pressure;BME280_temperature;BME280_humidity;BME280_pressure;Samples;Min_cycle;Max_cycle;Signal;HPM_P1;HPM_P2
2021/08/07 00:01:56;;;;;;;1.80;1.70;;;;;;;10.54;100.00;92594.38;1781207;77;21064;-87
2021/08/07 00:04:23;;;;;;;2.02;1.87;;;;;;;10.38;100.00;92596.95;1848237;75;22296;-86
2021/08/07 00:06:49;;;;;;;3.17;1.85;;;;;;;10.28;100.00;92592.48;1791781;75;21073;-87
2021/08/07 00:09:16;;;;;;;5.30;1.65;;;;;;;10.22;100.00;92594.26;1816009;75;21126;-87
2021/08/07 00:11:43;;;;;;;2.42;1.65;;;;;;;10.25;100.00;92595.42;1812363;75;21089;-87
2021/08/07 00:14:09;;;;;;;1.77;1.67;;;;;;;10.25;100.00;92591.91;1714559;79;21128;-87
2021/08/07 00:16:43;;;;;;;1.70;1.60;;;;;;;10.23;100.00;92603.20;1799921;78;21074;-87
2021/08/07 00:19:16;;;;;;;1.90;1.80;;;;;;;10.26;100.00;92595.59;1745244;78;21422;-87
2021/08/07 00:21:43;;;;;;;3.58;2.25;;;;;;;10.32;100.00;92593.19;1790705;78;21088;-87
2021/08/07 00:24:10;;;;;;;2.70;2.15;;;;;;;10.36;100.00;92594.66;1721309;81;21058;-86
2021/08/07 00:26:41;;;;;;;2.10;1.90;;;;;;;10.43;100.00;92596.50;1730716;79;21044;-86
2021/08/07 00:29:10;;;;;;;2.55;1.25;;;;;;;10.44;100.00;92589.88;1758459;79;21123;-86
2021/08/07 00:31:42;;;;;;;1.30;1.15;;;;;;;10.47;100.00;92595.09;1827203;76;21085;-87
2021/08/07 00:34:13;;;;;;;3.12;1.40;;;;;;;10.46;100.00;92597.03;1819613;76;21147;-86
2021/08/07 00:36:42;;;;;;;1.50;1.40;;;;;;;10.36;100.00;92594.66;1761728;77;21036;-86
2021/08/07 00:39:11;;;;;;;7.90;5.50;;;;;;;10.32;100.00;92608.90;1796116;78;21080;-86
2021/08/07 00:41:39;;;;;;;2.10;2.00;;;;;;;10.34;100.00;92610.63;1797584;77;21693;-86
2021/08/07 00:44:06;;;;;;;2.47;2.27;;;;;;;10.37;100.00;92607.06;1800793;77;21042;-86
2021/08/07 00:46:34;;;;;;;12.68;8.10;;;;;;;10.42;100.00;92603.13;1811257;77;21733;-87
2021/08/07 00:49:03;;;;;;;7.33;5.67;;;;;;;10.42;100.00;92606.61;1787557;78;21041;-86
2021/08/07 00:51:31;;;;;;;3.10;2.20;;;;;;;10.48;100.00;92610.20;1783738;78;21045;-86
2021/08/07 00:54:01;;;;;;;1.57;1.47;;;;;;;10.46;100.00;92603.83;1813587;77;21673;-86
2021/08/07 00:56:27;;;;;;;2.35;1.87;;;;;;;10.44;100.00;92605.59;1790954;78;21038;-86
2021/08/07 00:58:56;;;;;;;4.00;2.08;;;;;;;10.45;100.00;92607.71;1787707;78;21073;-86
2021/08/07 01:01:25;;;;;;;5.22;2.17;;;;;;;10.47;100.00;92606.72;1786802;78;21677;-86
2021/08/07 01:03:53;;;;;;;2.70;2.33;;;;;;;10.48;100.00;92608.25;1788451;78;21006;-86
2021/08/07 01:06:47;;;;;;;2.10;2.00;;;;;;;10.48;100.00;92606.89;1790384;78;21432;-86
2021/08/07 01:09:31;;;;;;;2.45;2.35;;;;;;;10.50;100.00;92605.90;1783875;76;21096;-86
2021/08/07 01:12:12;;;;;;;3.12;1.80;;;;;;;10.52;100.00;92614.39;1786544;78;21171;-86
2021/08/07 01:14:43;;;;;;;2.58;1.92;;;;;;;10.53;100.00;92619.23;1742577;76;21230;-86
2021/08/07 01:17:14;;;;;;;2.10;1.90;;;;;;;10.51;100.00;92626.45;1852205;75;21068;-86
2021/08/07 01:20:04;;;;;;;2.22;2.02;;;;;;;10.52;100.00;92627.98;1772614;77;21290;-86
2021/08/07 01:23:00;;;;;;;2.10;2.00;;;;;;;10.57;100.00;92628.09;1768401;79;21053;-86
2021/08/07 01:26:01;;;;;;;5.90;3.42;;;;;;;10.62;100.00;92626.28;1772573;79;21140;-86
2021/08/07 01:28:33;;;;;;;2.40;2.20;;;;;;;10.63;100.00;92621.78;1760065;79;21081;-85
2021/08/07 01:31:02;;;;;;;6.55;3.55;;;;;;;10.58;100.00;92627.70;1756153;78;21312;-86
2021/08/07 01:33:31;;;;;;;7.62;5.12;;;;;;;10.60;100.00;92621.23;1747001;78;21085;-86
2021/08/07 01:36:00;;;;;;;13.22;7.17;;;;;;;10.61;100.00;92617.36;1773096;79;21082;-86
2021/08/07 01:38:31;;;;;;;5.25;3.45;;;;;;;10.60;100.00;92625.91;1755525;79;21062;-86
2021/08/07 01:41:02;;;;;;;4.33;3.22;;;;;;;10.59;100.00;92621.07;1776105;75;21045;-86
2021/08/07 01:43:30;;;;;;;4.80;3.70;;;;;;;10.58;100.00;92624.22;1773932;75;21049;-86
2021/08/07 01:45:58;;;;;;;4.78;1.98;;;;;;;10.55;100.00;92623.08;1784250;78;21364;-85
2021/08/07 01:48:34;;;;;;;2.62;1.80;;;;;;;10.54;100.00;92620.20;1789349;77;20974;-86
2021/08/07 01:51:15;;;;;;;4.90;3.42;;;;;;;10.54;99.94;92626.23;1784274;77;20996;-86
2021/08/07 01:53:43;;;;;;;2.65;1.77;;;;;;;10.53;99.77;92627.39;1849958;75;20942;-86
2021/08/07 01:56:18;;;;;;;1.60;1.50;;;;;;;10.51;99.89;92620.25;1800815;78;20978;-86
2021/08/07 01:58:55;;;;;;;3.45;2.08;;;;;;;10.48;99.50;92622.44;1846206;75;22364;-86
2021/08/07 02:01:25;;;;;;;2.17;1.98;;;;;;;10.45;98.81;92624.02;1786529;75;21023;-87
2021/08/07 02:03:56;;;;;;;4.80;2.17;;;;;;;10.42;98.33;92622.15;1811515;76;21006;-86
2021/08/07 02:06:23;;;;;;;1.90;1.75;;;;;;;10.38;98.01;92626.84;1819268;75;21081;-86
2021/08/07 02:08:51;;;;;;;3.45;3.12;;;;;;;10.34;97.57;92625.58;1740147;78;21819;-85
2021/08/07 02:11:20;;;;;;;2.70;2.20;;;;;;;10.30;97.35;92623.47;1809107;77;21059;-86
2021/08/07 02:13:49;;;;;;;3.30;2.00;;;;;;;10.24;97.25;92627.06;1789498;78;21500;-86
2021/08/07 02:16:18;;;;;;;4.08;2.40;;;;;;;10.17;97.29;92631.41;1761134;78;20958;-86
2021/08/07 02:18:46;;;;;;;2.02;1.90;;;;;;;10.13;97.62;92640.20;1798014;76;21542;-87
2021/08/07 02:21:13;;;;;;;1.90;1.80;;;;;;;10.07;97.62;92639.13;1766746;75;21063;-87
2021/08/07 02:23:41;;;;;;;1.62;1.52;;;;;;;9.98;97.70;92641.00;1785838;75;21503;-87
2021/08/07 02:26:10;;;;;;;2.70;1.95;;;;;;;9.93;98.24;92639.35;1739693;78;21097;-87
2021/08/07 02:28:38;;;;;;;3.75;2.15;;;;;;;9.88;98.59;92640.55;1725574;80;21364;-86
2021/08/07 02:31:06;;;;;;;2.83;1.65;;;;;;;9.84;98.76;92637.71;1758386;79;21079;-86
2021/08/07 02:33:35;;;;;;;15.00;8.93;;;;;;;9.80;98.87;92624.19;1785307;78;21073;-86
2021/08/07 02:36:02;;;;;;;17.85;9.25;;;;;;;9.77;98.65;92626.95;1820936;76;21147;-86
2021/08/07 02:38:31;;;;;;;3.60;2.77;;;;;;;9.71;99.09;92634.80;1787170;78;21045;-86
2021/08/07 02:40:58;;;;;;;3.70;2.40;;;;;;;9.73;99.39;92641.92;1802644;78;20999;-86
2021/08/07 02:43:26;;;;;;;7.97;5.62;;;;;;;9.72;98.95;92642.52;1757245;78;21646;-87
2021/08/07 02:45:53;;;;;;;4.35;3.52;;;;;;;9.69;98.64;92649.34;1779023;75;21057;-86
2021/08/07 02:48:25;;;;;;;4.00;3.10;;;;;;;9.64;98.61;92652.53;1832294;76;21281;-86
2021/08/07 02:50:55;;;;;;;4.45;3.37;;;;;;;9.59;98.87;92654.31;1772455;79;21031;-86
2021/08/07 02:53:22;;;;;;;3.42;2.80;;;;;;;9.59;99.16;92653.75;1767902;79;21563;-86
2021/08/07 02:55:49;;;;;;;4.55;3.12;;;;;;;9.57;99.15;92656.09;1796919;75;21040;-86
2021/08/07 02:58:20;;;;;;;2.52;2.33;;;;;;;9.54;99.17;92658.25;1785930;76;21136;-87
2021/08/07 03:00:46;;;;;;;2.55;2.35;;;;;;;9.50;99.34;92660.25;1712938;77;21038;-87
2021/08/07 03:03:13;;;;;;;4.45;2.67;;;;;;;9.42;99.49;92665.58;1799280;78;21635;-87
2021/08/07 03:05:42;;;;;;;4.50;2.45;;;;;;;9.36;99.87;92661.77;1770293;79;20975;-87
2021/08/07 03:08:11;;;;;;;2.08;1.82;;;;;;;9.29;100.00;92658.57;1772913;79;21413;-87
2021/08/07 03:10:39;;;;;;;5.72;2.02;;;;;;;9.25;100.00;92656.45;1750511;79;21041;-86
2021/08/07 03:13:09;;;;;;;2.05;1.85;;;;;;;9.19;100.00;92654.79;1769165;77;21114;-86
2021/08/07 03:15:37;;;;;;;3.12;2.60;;;;;;;9.15;100.00;92662.78;1812818;77;21048;-86
2021/08/07 03:18:04;;;;;;;3.02;2.70;;;;;;;9.11;100.00;92658.75;1810661;77;21036;-86
2021/08/07 03:20:33;;;;;;;5.62;3.90;;;;;;;9.12;100.00;92660.28;1785399;78;21331;-86
2021/08/07 03:23:04;;;;;;;4.83;2.95;;;;;;;9.15;100.00;92662.78;1750458;77;21041;-86
2021/08/07 03:25:31;;;;;;;4.12;2.80;;;;;;;9.18;100.00;92658.69;1779898;77;21110;-87
2021/08/07 03:27:59;;;;;;;2.90;2.67;;;;;;;9.24;100.00;92663.83;1740491;78;21714;-87
2021/08/07 03:30:26;;;;;;;3.85;3.40;;;;;;;9.30;100.00;92667.47;1792494;78;21053;-86
2021/08/07 03:32:53;;;;;;;2.52;2.33;;;;;;;9.36;100.00;92671.27;1793015;78;21068;-86
2021/08/07 03:35:20;;;;;;;2.58;2.37;;;;;;;9.42;100.00;92671.01;1789883;78;21672;-87
2021/08/07 03:37:47;;;;;;;2.60;2.40;;;;;;;9.41;100.00;92674.91;1819941;76;21067;-86
2021/08/07 03:40:15;;;;;;;2.27;2.05;;;;;;;9.38;100.00;92674.35;1773992;76;21129;-86
2021/08/07 03:42:43;;;;;;;2.33;2.12;;;;;;;9.36;100.00;92680.76;1747431;77;21061;-86
2021/08/07 03:45:12;;;;;;;2.67;2.47;;;;;;;9.31;100.00;92683.33;1780941;78;21642;-86
2021/08/07 03:47:52;;;;;;;2.50;2.30;;;;;;;9.25;100.00;92683.58;1811597;77;21071;-87
2021/08/07 03:50:21;;;;;;;2.20;2.10;;;;;;;9.21;100.00;92685.00;1781536;78;21361;-86
2021/08/07 03:52:48;;;;;;;2.20;2.10;;;;;;;9.19;100.00;92685.22;1809374;77;21466;-86
2021/08/07 03:55:15;;;;;;;2.47;2.27;;;;;;;9.19;100.00;92687.93;1795453;77;21061;-86
2021/08/07 03:57:55;;;;;;;2.33;2.22;;;;;;;9.16;100.00;92677.29;1744035;78;21077;-86
2021/08/07 04:00:30;;;;;;;2.50;2.30;;;;;;;9.15;100.00;92683.89;1832507;75;21064;-86
2021/08/07 04:02:57;;;;;;;2.60;2.40;;;;;;;9.16;100.00;92686.78;1802297;77;21764;-86
2021/08/07 04:05:24;;;;;;;2.67;1.67;;;;;;;9.18;100.00;92698.60;1803235;78;21046;-86
2021/08/07 04:07:51;;;;;;;2.15;2.05;;;;;;;9.22;100.00;92692.55;1781514;78;21058;-87
2021/08/07 04:10:19;;;;;;;2.58;2.37;;;;;;;9.27;100.00;92696.17;1777828;79;21097;-87
2021/08/07 04:12:47;;;;;;;3.25;2.50;;;;;;;9.35;100.00;92700.93;1791250;76;21136;-87
2021/08/07 04:15:14;;;;;;;1.80;1.70;;;;;;;9.39;100.00;92698.36;1852388;75;22162;-86
2021/08/07 04:17:41;;;;;;;2.77;2.05;;;;;;;9.45;100.00;92704.89;1813024;75;21644;-86
2021/08/07 04:20:11;;;;;;;2.02;1.75;;;;;;;9.48;100.00;92708.16;1785899;78;20995;-86
2021/08/07 04:22:38;;;;;;;1.80;1.70;;;;;;;9.52;100.00;92704.05;1796355;78;21356;-86
2021/08/07 04:25:07;;;;;;;1.90;1.80;;;;;;;9.56;100.00;92707.48;1784512;79;21496;-87
2021/08/07 04:27:35;;;;;;;2.37;2.10;;;;;;;9.70;100.00;92710.60;1787985;78;21442;-87
2021/08/07 04:30:04;;;;;;;3.30;2.17;;;;;;;9.83;100.00;92704.83;1779857;79;21059;-87
2021/08/07 04:32:31;;;;;;;3.12;1.90;;;;;;;9.93;100.00;92706.65;1776681;79;21081;-86
2021/08/07 04:34:59;;;;;;;7.87;5.22;;;;;;;10.03;100.00;92701.47;1796960;77;21074;-87
2021/08/07 04:37:26;;;;;;;4.42;3.62;;;;;;;10.12;100.00;92691.65;1771906;79;21065;-87
2021/08/07 04:39:53;;;;;;;2.10;1.95;;;;;;;10.29;100.00;92698.03;1767908;79;21161;-87
2021/08/07 04:42:20;;;;;;;2.25;2.05;;;;;;;10.43;100.00;92698.42;1783200;79;21109;-87
2021/08/07 04:44:46;;;;;;;1.70;1.60;;;;;;;10.49;100.00;92694.03;1800782;78;21065;-86
2021/08/07 04:47:12;;;;;;;2.62;2.05;;;;;;;10.58;100.00;92699.73;1766641;78;21101;-86
2021/08/07 04:49:39;;;;;;;1.55;1.50;;;;;;;10.70;100.00;92690.99;1771598;79;21042;-86
2021/08/07 04:52:08;;;;;;;3.30;2.10;;;;;;;10.80;100.00;92693.97;1775094;78;21091;-86
2021/08/07 04:54:38;;;;;;;3.05;2.30;;;;;;;10.89;100.00;92694.96;1802336;78;21059;-86
2021/08/07 04:57:05;;;;;;;4.53;2.12;;;;;;;10.99;100.00;92707.45;1731476;80;21097;-85
2021/08/07 04:59:31;;;;;;;2.00;1.90;;;;;;;11.07;100.00;92704.19;1719202;80;21094;-86
2021/08/07 05:01:59;;;;;;;1.75;1.65;;;;;;;11.22;100.00;92702.58;1774728;78;21108;-86
2021/08/07 05:04:26;;;;;;;2.05;1.80;;;;;;;11.34;100.00;92706.81;1834294;75;21454;-86
2021/08/07 05:06:53;;;;;;;1.75;1.50;;;;;;;11.42;98.99;92702.00;1814770;76;21037;-86
2021/08/07 05:09:20;;;;;;;1.55;1.45;;;;;;;11.70;99.05;92706.16;1853065;75;21030;-86
2021/08/07 05:12:06;;;;;;;1.67;1.57;;;;;;;11.98;98.31;92710.28;1798614;77;21532;-86
2021/08/07 05:14:35;;;;;;;1.72;1.62;;;;;;;12.28;96.76;92704.41;1772144;77;21122;-85
2021/08/07 05:17:02;;;;;;;3.47;1.67;;;;;;;12.47;93.72;92710.40;1774445;78;21974;-86
2021/08/07 05:19:32;;;;;;;1.72;1.37;;;;;;;12.60;93.19;92698.25;1791887;75;63052;-77
2021/08/07 05:22:00;;;;;;;2.52;2.33;;;;;;;12.75;92.63;92705.47;1759693;77;21307;-78
2021/08/07 05:24:27;;;;;;;3.08;2.70;;;;;;;12.84;92.29;92710.52;1721846;78;21415;-80
2021/08/07 05:26:53;;;;;;;1.75;1.65;;;;;;;12.98;91.70;92712.15;1743535;77;21145;-76
2021/08/07 05:29:20;;;;;;;2.00;1.85;;;;;;;13.07;90.41;92698.66;1728283;78;21042;-76
2021/08/07 05:31:47;;;;;;;1.20;1.20;;;;;;;13.12;89.81;92703.59;1769862;77;21121;-78
2021/08/07 05:34:13;;;;;;;2.20;1.60;;;;;;;13.13;90.17;92704.38;1721925;81;21169;-77
2021/08/07 05:36:40;;;;;;;1.50;1.40;;;;;;;13.16;89.03;92713.05;1666493;80;21096;-78
2021/08/07 05:39:07;;;;;;;1.70;1.60;;;;;;;13.26;89.49;92712.05;1658728;81;21114;-78
2021/08/07 05:41:35;;;;;;;2.55;1.37;;;;;;;13.45;89.82;92716.46;1713808;77;21950;-79
2021/08/07 05:44:01;;;;;;;1.85;1.67;;;;;;;13.68;91.18;92720.92;1789618;77;20979;-79
2021/08/07 05:46:28;;;;;;;1.65;1.55;;;;;;;14.00;91.60;92715.36;1726729;78;21002;-78
2021/08/07 05:48:56;;;;;;;1.95;1.75;;;;;;;14.33;89.75;92722.81;1748172;78;20998;-79
2021/08/07 05:51:23;;;;;;;3.75;2.60;;;;;;;14.64;86.89;92722.31;1700397;78;21662;-78
2021/08/07 05:53:51;;;;;;;2.60;1.70;;;;;;;14.93;86.89;92722.79;1714244;77;21280;-82
2021/08/07 05:56:18;;;;;;;2.40;2.20;;;;;;;15.23;85.33;92726.91;1768480;77;21007;-81
2021/08/07 05:58:44;;;;;;;3.30;2.60;;;;;;;15.48;80.74;92736.45;1786179;77;21615;-80
2021/08/07 06:01:11;;;;;;;5.35;3.35;;;;;;;15.71;79.58;92736.67;1760857;77;21023;-80
2021/08/07 06:03:38;;;;;;;2.12;2.00;;;;;;;15.93;78.51;92746.91;1772140;78;21006;-78
2021/08/07 06:06:04;;;;;;;2.10;1.90;;;;;;;16.13;76.36;92744.61;1714550;78;21423;-79
2021/08/07 06:08:31;;;;;;;2.05;1.90;;;;;;;16.42;74.35;92750.45;1715496;81;21878;-81
2021/08/07 06:11:00;;;;;;;2.20;2.00;;;;;;;16.81;73.03;92761.34;1770272;77;20962;-82
2021/08/07 06:13:26;;;;;;;2.58;1.92;;;;;;;17.23;72.23;92761.69;1723706;77;21012;-83
2021/08/07 06:15:53;;;;;;;1.77;1.67;;;;;;;17.49;68.92;92762.84;1718169;78;20994;-78
2021/08/07 06:18:20;;;;;;;2.33;2.12;;;;;;;17.57;69.72;92767.43;1765758;77;21136;-77
2021/08/07 06:20:46;;;;;;;3.05;2.02;;;;;;;17.49;67.26;92758.71;1760951;77;21843;-78
2021/08/07 06:23:13;;;;;;;3.92;2.50;;;;;;;17.34;67.38;92770.89;1791309;77;21534;-80
2021/08/07 06:25:39;;;;;;;1.80;1.70;;;;;;;17.13;67.76;92764.24;1745394;77;21054;-77
2021/08/07 06:28:08;;;;;;;3.10;2.40;;;;;;;16.98;67.62;92775.63;1775663;77;21059;-78
2021/08/07 06:30:42;;;;;;;1.80;1.70;;;;;;;16.90;68.32;92778.50;1773822;77;21084;-77
2021/08/07 06:33:07;;;;;;;2.05;1.95;;;;;;;16.89;69.03;92781.09;1762163;77;21005;-77
2021/08/07 06:35:34;;;;;;;2.27;1.95;;;;;;;16.92;70.01;92783.67;1795486;77;21002;-78
2021/08/07 06:38:01;;;;;;;2.10;1.98;;;;;;;17.06;70.67;92783.75;1723825;77;20998;-79
2021/08/07 06:40:28;;;;;;;2.22;2.02;;;;;;;17.27;70.21;92782.77;1726114;77;20987;-82
2021/08/07 06:42:55;;;;;;;2.52;1.70;;;;;;;17.51;69.60;92782.98;1711265;77;21934;-78
2021/08/07 06:45:35;;;;;;;2.00;1.90;;;;;;;17.78;68.97;92787.18;1740717;77;21014;-81
2021/08/07 06:48:06;;;;;;;2.05;1.85;;;;;;;18.06;69.28;92791.35;1682469;80;20991;-77
2021/08/07 06:50:34;;;;;;;2.30;1.87;;;;;;;18.21;67.18;92789.52;1726228;80;21054;-79
2021/08/07 06:53:01;;;;;;;1.90;1.70;;;;;;;18.28;65.50;92791.17;1742665;77;21097;-77
2021/08/07 06:55:27;;;;;;;4.03;1.85;;;;;;;18.35;65.90;92788.88;1764047;77;21025;-81
2021/08/07 06:57:54;;;;;;;1.45;1.35;;;;;;;18.44;64.89;92789.50;1773528;77;21022;-81
2021/08/07 07:00:22;;;;;;;2.80;2.02;;;;;;;18.50;64.70;92799.27;1693770;80;21013;-79
2021/08/07 07:02:48;;;;;;;2.62;1.90;;;;;;;18.42;64.43;92795.45;1710064;77;21069;-77
2021/08/07 07:05:15;;;;;;;2.02;1.87;;;;;;;18.32;62.78;92804.96;1779054;77;21627;-75
2021/08/07 07:07:44;;;;;;;1.72;1.62;;;;;;;18.08;62.77;92808.91;1716834;77;21150;-83
2021/08/07 07:10:13;;;;;;;3.67;1.90;;;;;;;17.94;63.35;92803.41;1769111;77;21022;-76
2021/08/07 07:12:41;;;;;;;2.10;1.77;;;;;;;17.91;64.84;92805.70;1793627;77;21042;-80
2021/08/07 07:15:09;;;;;;;2.30;2.10;;;;;;;17.94;63.94;92806.75;1686964;79;21005;-86
2021/08/07 07:17:36;;;;;;;1.80;1.70;;;;;;;17.93;59.78;92807.36;1740015;79;21147;-80
2021/08/07 07:20:07;;;;;;;2.95;1.70;;;;;;;17.83;62.42;92814.70;1763667;77;21110;-80
2021/08/07 07:22:34;;;;;;;2.25;1.30;;;;;;;17.71;63.39;92814.94;1766603;77;21033;-80
2021/08/07 07:26:48;;;;;;;1.82;1.62;;;;;;;17.53;62.69;92811.55;1810491;75;21981;-76
2021/08/07 07:29:15;;;;;;;1.82;1.72;;;;;;;17.38;62.26;92809.22;1760349;77;22188;-81
2021/08/07 07:31:44;;;;;;;1.30;1.15;;;;;;;17.31;63.34;92807.51;1724686;80;21084;-79
2021/08/07 07:34:12;;;;;;;1.77;1.47;;;;;;;17.28;63.01;92804.90;1692835;80;21048;-80
2021/08/07 07:36:39;;;;;;;2.22;1.90;;;;;;;17.27;64.53;92800.63;1720051;78;20988;-78
2021/08/07 07:39:08;;;;;;;1.75;1.65;;;;;;;17.31;64.09;92802.62;1738313;80;21422;-77
2021/08/07 07:41:35;;;;;;;2.10;1.90;;;;;;;17.38;64.43;92808.61;1757712;78;21072;-78
2021/08/07 07:44:01;;;;;;;1.82;1.72;;;;;;;17.47;62.91;92796.86;1696785;78;21096;-80
2021/08/07 07:46:29;;;;;;;1.65;1.55;;;;;;;17.58;63.37;92800.56;1752072;78;20934;-76
2021/08/07 07:48:56;;;;;;;1.65;1.55;;;;;;;17.62;61.55;92814.31;1686376;80;21593;-77
2021/08/07 07:51:23;;;;;;;2.45;1.87;;;;;;;17.59;61.67;92811.09;1671008;79;21584;-78
2021/08/07 07:53:49;;;;;;;2.58;1.30;;;;;;;17.55;61.84;92809.09;1695501;79;21143;-77
2021/08/07 07:56:16;;;;;;;1.60;1.50;;;;;;;17.54;61.67;92811.70;1702690;79;21392;-80
2021/08/07 07:58:42;;;;;;;1.90;1.80;;;;;;;17.54;62.29;92811.70;1721255;80;21948;-76
2021/08/07 08:01:10;;;;;;;2.55;2.02;;;;;;;17.57;62.23;92803.92;1680552;79;21242;-77
2021/08/07 08:03:36;;;;;;;1.80;1.70;;;;;;;17.65;63.28;92809.28;1735534;77;21447;-77
2021/08/07 08:06:05;;;;;;;1.67;1.57;;;;;;;17.66;61.78;92799.05;1716420;78;21178;-81
2021/08/07 08:08:33;;;;;;;2.10;1.90;;;;;;;17.68;62.36;92811.75;1763245;77;21439;-79
2021/08/07 08:11:00;;;;;;;1.95;1.85;;;;;;;17.72;62.75;92806.25;1770315;77;21574;-79
2021/08/07 08:13:28;;;;;;;1.87;1.70;;;;;;;17.76;63.32;92803.38;1779174;77;21095;-77
2021/08/07 08:15:55;;;;;;;1.95;1.72;;;;;;;17.82;62.83;92793.30;1739511;79;21082;-81
2021/08/07 08:18:23;;;;;;;2.87;1.27;;;;;;;17.90;63.18;92793.76;1732532;77;21100;-75
2021/08/07 08:20:49;;;;;;;2.30;1.65;;;;;;;17.93;62.21;92804.61;1787686;77;21151;-77
2021/08/07 08:23:16;;;;;;;1.80;1.70;;;;;;;17.97;62.62;92793.47;1719724;79;21076;-77
2021/08/07 08:25:43;;;;;;;1.65;1.55;;;;;;;18.05;62.45;92803.55;1762780;77;21139;-79
2021/08/07 08:28:09;;;;;;;1.57;1.47;;;;;;;18.11;62.50;92797.61;1768198;77;21045;-77
2021/08/07 08:30:39;;;;;;;2.37;1.40;;;;;;;18.14;61.87;92801.59;1791364;77;21028;-78
2021/08/07 08:33:07;;;;;;;1.62;1.52;;;;;;;18.17;61.99;92801.29;1790968;77;21107;-78
2021/08/07 08:35:33;;;;;;;1.92;1.82;;;;;;;18.23;62.47;92804.94;1734121;78;21184;-81
2021/08/07 08:38:01;;;;;;;3.15;1.55;;;;;;;18.26;60.41;92790.89;1745443;77;21048;-79
2021/08/07 08:40:27;;;;;;;3.72;2.25;;;;;;;18.27;61.39;92793.78;1787154;77;21076;-78
2021/08/07 08:42:55;;;;;;;1.90;1.80;;;;;;;18.32;61.82;92803.58;1761420;77;21700;-73
2021/08/07 08:45:21;;;;;;;1.87;1.77;;;;;;;18.30;60.81;92795.63;1759189;77;21293;-79
2021/08/07 08:47:50;;;;;;;2.00;1.90;;;;;;;18.23;61.38;92792.56;1771800;77;21123;-79
2021/08/07 08:50:21;;;;;;;1.90;1.80;;;;;;;18.25;62.10;92793.49;1740237;79;21040;-78
2021/08/07 08:52:45;;;;;;;1.85;1.70;;;;;;;18.29;61.85;92783.86;1765210;77;21069;-80
2021/08/07 08:55:13;;;;;;;1.40;1.35;;;;;;;18.39;62.25;92784.59;1812997;77;20986;-79
2021/08/07 08:57:39;;;;;;;1.80;1.70;;;;;;;18.50;62.85;92787.64;1790000;77;21140;-76
2021/08/07 09:00:08;;;;;;;2.00;1.90;;;;;;;18.59;61.56;92797.90;1814650;77;21035;-82
2021/08/07 09:02:35;;;;;;;1.82;1.72;;;;;;;18.58;61.35;92796.35;1788595;77;21872;-79
2021/08/07 09:05:05;;;;;;;2.60;2.00;;;;;;;18.64;62.46;92801.40;1725847;78;21602;-81
2021/08/07 09:07:31;;;;;;;1.70;1.60;;;;;;;18.72;61.76;92794.98;1783888;77;21048;-79
2021/08/07 09:09:58;;;;;;;1.90;1.80;;;;;;;18.79;62.39;92802.94;1714124;77;21065;-78
2021/08/07 09:12:47;;;;;;;2.58;1.62;;;;;;;18.86;59.64;92802.62;1788454;78;21045;-77
2021/08/07 09:15:40;;;;;;;1.55;1.45;;;;;;;18.85;59.65;92804.61;1747306;79;21666;-78
2021/08/07 09:18:18;;;;;;;1.80;1.70;;;;;;;18.82;60.55;92793.75;1736172;79;21043;-78
2021/08/07 09:22:59;;;;;;;1.67;1.57;;;;;;;18.97;60.74;92789.12;1822189;77;22874;-78
2021/08/07 09:25:26;;;;;;;1.90;1.80;;;;;;;18.98;60.27;92784.37;1767606;78;21036;-78
2021/08/07 09:27:53;;;;;;;2.80;1.72;;;;;;;19.02;59.53;92787.72;1769140;78;21177;-78
2021/08/07 09:30:25;;;;;;;1.80;1.55;;;;;;;19.04;59.57;92790.17;1768680;78;21546;-77
2021/08/07 09:33:08;;;;;;;2.25;1.75;;;;;;;19.04;60.07;92799.81;1747362;78;21703;-76
2021/08/07 09:36:49;;;;;;;1.87;1.65;;;;;;;19.06;59.58;92798.72;1827629;76;22155;-77
2021/08/07 09:39:17;;;;;;;1.70;1.60;;;;;;;18.95;59.67;92802.58;1749925;77;21065;-76
2021/08/07 09:41:58;;;;;;;2.02;1.92;;;;;;;18.92;59.90;92807.66;1752919;78;21157;-76
2021/08/07 09:44:25;;;;;;;2.90;1.90;;;;;;;18.93;60.54;92812.70;1800994;77;21085;-78
2021/08/07 09:47:08;;;;;;;1.62;1.52;;;;;;;18.98;60.63;92807.17;1778251;78;22099;-77
2021/08/07 09:49:43;;;;;;;1.75;1.65;;;;;;;19.02;60.25;92813.28;1797172;78;21627;-76
2021/08/07 09:52:10;;;;;;;2.58;2.00;;;;;;;18.99;62.23;92812.06;1773766;78;21057;-77
2021/08/07 09:54:42;;;;;;;2.08;1.87;;;;;;;18.99;62.34;92807.31;1771841;77;21117;-75
2021/08/07 09:57:12;;;;;;;1.65;1.55;;;;;;;19.03;62.61;92810.69;1724624;79;21072;-80
2021/08/07 09:59:47;;;;;;;1.60;1.50;;;;;;;19.09;59.47;92819.84;1800853;77;21139;-80
2021/08/07 10:02:20;;;;;;;;;;;;;;;19.11;61.35;92820.77;1772525;77;21367;-77
2021/08/07 10:04:47;;;;;;;2.17;1.98;;;;;;;19.17;61.09;92822.41;1766668;77;20548;-76
2021/08/07 10:07:14;;;;;;;1.85;1.75;;;;;;;19.22;59.41;92816.91;1734790;77;21021;-91
2021/08/07 10:12:15;;;;;;;1.72;1.62;;;;;;;19.37;59.88;92816.39;1850034;75;22722;-82
2021/08/07 10:14:50;;;;;;;2.45;2.25;;;;;;;19.40;61.28;92811.92;1765018;77;21096;-80
2021/08/07 10:17:18;;;;;;;3.02;1.65;;;;;;;19.51;60.71;92806.66;1795057;77;21095;-81
2021/08/07 10:19:47;;;;;;;1.98;1.55;;;;;;;19.62;60.66;92816.59;1793688;77;21784;-78
2021/08/07 10:22:16;;;;;;;1.67;1.55;;;;;;;19.71;58.24;92821.32;1786693;77;21029;-80
2021/08/07 10:24:46;;;;;;;2.20;2.10;;;;;;;19.72;58.77;92822.08;1817823;77;21696;-80
2021/08/07 10:29:45;;;;;;;2.27;2.08;;;;;;;19.72;57.66;92828.36;1845306;76;22611;-78
2021/08/07 10:32:14;;;;;;;1.67;1.57;;;;;;;19.70;58.44;92819.77;1721930;77;20966;-81
2021/08/07 10:34:47;;;;;;;1.98;1.82;;;;;;;19.72;59.46;92821.46;1803037;77;20954;-81
2021/08/07 10:37:14;;;;;;;1.87;1.50;;;;;;;19.70;59.03;92823.91;1798602;76;20937;-86
2021/08/07 10:39:41;;;;;;;2.62;1.52;;;;;;;19.67;59.32;92820.73;1824508;77;21587;-79
2021/08/07 10:44:23;;;;;;;1.67;1.50;;;;;;;19.57;58.46;92824.11;1873032;74;22703;-79
2021/08/07 10:46:54;;;;;;;1.75;1.65;;;;;;;19.44;60.04;92822.16;1810848;77;21033;-83
2021/08/07 10:49:41;;;;;;;2.37;1.60;;;;;;;19.45;61.03;92821.57;1776087;77;21095;-84
2021/08/07 10:52:29;;;;;;;1.80;1.70;;;;;;;19.53;59.26;92831.78;1846324;76;21159;-81
2021/08/07 10:54:55;;;;;;;2.75;1.55;;;;;;;19.52;59.02;92826.72;1781047;77;21092;-85
2021/08/07 10:57:39;;;;;;;2.58;1.50;;;;;;;19.51;59.73;92825.20;1819574;75;21117;-88
2021/08/07 11:00:20;;;;;;;1.55;1.45;;;;;;;19.55;59.18;92834.06;1798273;77;21865;-78
2021/08/07 11:02:47;;;;;;;1.75;1.65;;;;;;;19.64;59.61;92838.97;1843773;75;21083;-83
2021/08/07 11:05:13;;;;;;;1.47;1.32;;;;;;;19.74;60.93;92841.67;1763737;77;21069;-84
2021/08/07 11:07:40;;;;;;;4.10;1.70;;;;;;;19.84;59.32;92846.67;1840906;76;21903;-79
2021/08/07 11:10:12;;;;;;;2.50;1.95;;;;;;;19.94;58.41;92851.53;1816471;77;21026;-80
2021/08/07 11:12:42;;;;;;;3.37;2.10;;;;;;;20.00;57.93;92846.13;1816564;77;21045;-82
2021/08/07 11:15:30;;;;;;;1.92;1.70;;;;;;;20.01;57.14;92846.27;1736608;77;21014;-81
2021/08/07 11:18:13;;;;;;;2.05;1.95;;;;;;;19.96;58.25;92847.67;1794518;77;21029;-82
2021/08/07 11:20:42;;;;;;;1.85;1.75;;;;;;;19.99;58.32;92860.55;1813581;75;21075;-82
2021/08/07 11:24:59;;;;;;;1.50;1.40;;;;;;;20.17;58.23;92852.02;1867671;74;23513;-79
2021/08/07 11:27:59;;;;;;;1.82;1.72;;;;;;;20.19;59.86;92852.30;1788585;77;21021;-79
2021/08/07 11:30:34;;;;;;;2.17;2.05;;;;;;;20.28;57.77;92864.05;1841879;75;21128;-78
2021/08/07 11:33:11;;;;;;;2.15;2.00;;;;;;;20.33;56.74;92861.25;1779264;77;22317;-74
2021/08/07 11:35:45;;;;;;;1.92;1.82;;;;;;;20.35;58.01;92860.94;1788824;77;21042;-76
2021/08/07 11:38:16;;;;;;;1.75;1.65;;;;;;;20.42;57.12;92865.31;1828444;75;21124;-78
2021/08/07 11:41:00;;;;;;;1.47;1.37;;;;;;;20.42;55.95;92864.55;1693726;80;21065;-79
2021/08/07 11:43:40;;;;;;;2.87;1.60;;;;;;;20.40;55.83;92860.89;1682721;81;21130;-76
2021/08/07 11:46:09;;;;;;;1.52;1.42;;;;;;;20.35;56.01;92862.94;1725636;80;21120;-78
2021/08/07 11:48:40;;;;;;;1.62;1.52;;;;;;;20.35;58.91;92860.94;1701930;81;21013;-77
2021/08/07 11:51:17;;;;;;;2.12;2.00;;;;;;;20.45;58.56;92867.14;1703767;81;21115;-77
2021/08/07 11:53:44;;;;;;;2.10;2.00;;;;;;;20.52;56.00;92870.95;1718988;81;21239;-72
2021/08/07 11:58:11;;;;;;;1.95;1.85;;;;;;;20.62;56.42;92875.80;1837034;75;23080;-76
2021/08/07 12:00:45;;;;;;;4.58;4.17;;;;;;;20.58;56.76;92874.59;1705794;76;21077;-80